Time;durP1;ratioP1;P1;durP2;ratioP2;P2;SDS_P1;SDS_P2;PMS_P1;PMS_P2;Temp;Humidity;BMP_temperature;BMP_pressure;BME280_temperature;BME280_humidity;BME280_pressure;Samples;Min_cycle;Max_cycle;Signal;HPM_P1;HPM_P2
2022/01/27 00:01:06;;;;;;;39.77;21.17;;;6.10;99.90;;;;;;4902344;29;20533;-74
2022/01/27 00:06:23;;;;;;;37.83;20.97;;;6.10;99.90;;;;;;4898573;29;20466;-74
2022/01/27 00:08:55;;;;;;;36.80;19.50;;;6.20;99.90;;;;;;4905648;29;20751;-74
2022/01/27 00:11:21;;;;;;;45.57;22.27;;;6.10;99.90;;;;;;4905061;29;20680;-74
2022/01/27 00:13:54;;;;;;;38.40;20.93;;;6.20;99.90;;;;;;4904536;29;20533;-75
2022/01/27 00:16:27;;;;;;;37.53;19.23;;;6.20;99.90;;;;;;4909286;29;20201;-73
2022/01/27 00:18:54;;;;;;;40.70;20.87;;;6.20;99.90;;;;;;4905197;29;20571;-73
2022/01/27 00:21:22;;;;;;;43.43;21.03;;;6.10;99.90;;;;;;4920475;29;20988;-73
2022/01/27 00:23:48;;;;;;;37.53;19.93;;;6.20;99.90;;;;;;4905616;29;21014;-74
2022/01/27 00:26:16;;;;;;;41.27;22.03;;;6.20;99.90;;;;;;4901791;29;20907;-74
2022/01/27 00:28:42;;;;;;;41.23;21.63;;;6.30;99.90;;;;;;4903681;29;20605;-74
2022/01/27 00:31:09;;;;;;;38.93;21.27;;;6.30;99.90;;;;;;4902501;29;21248;-74
2022/01/27 00:33:35;;;;;;;44.27;21.23;;;6.30;99.90;;;;;;4904062;29;20457;-73
2022/01/27 00:36:01;;;;;;;42.80;23.20;;;6.30;99.90;;;;;;4902783;29;20820;-74
2022/01/27 00:38:26;;;;;;;37.33;20.57;;;6.30;99.90;;;;;;4902303;29;20472;-73
2022/01/27 00:40:55;;;;;;;40.87;21.80;;;6.30;99.90;;;;;;4915612;29;20241;-74
2022/01/27 00:43:20;;;;;;;48.83;23.93;;;6.20;99.90;;;;;;4902967;29;20232;-74
2022/01/27 00:45:49;;;;;;;46.10;23.40;;;6.10;99.90;;;;;;4901786;29;20489;-74
2022/01/27 00:48:17;;;;;;;41.10;21.80;;;6.10;99.90;;;;;;4903699;29;20216;-74
2022/01/27 00:50:48;;;;;;;48.50;24.20;;;6.10;99.90;;;;;;4915040;29;20485;-74
2022/01/27 00:53:33;;;;;;;43.30;23.60;;;6.20;99.90;;;;;;4912977;29;20543;-74
2022/01/27 00:56:15;;;;;;;40.37;22.93;;;6.20;99.90;;;;;;4901679;29;20523;-74
2022/01/27 00:58:56;;;;;;;42.70;23.40;;;6.20;99.90;;;;;;4904369;29;20492;-74
2022/01/27 01:01:27;;;;;;;46.67;26.23;;;6.20;99.90;;;;;;4915372;29;20553;-74
2022/01/27 01:03:57;;;;;;;40.57;23.10;;;6.20;99.90;;;;;;4900354;29;20461;-74
2022/01/27 01:06:33;;;;;;;45.50;23.93;;;6.20;99.90;;;;;;4910508;29;20501;-74
2022/01/27 01:35:08;;;;;;;43.90;23.87;;;6.30;99.90;;;;;;4899903;29;20204;-74
2022/01/27 01:37:38;;;;;;;41.17;24.17;;;6.30;99.90;;;;;;4901696;29;20469;-74
2022/01/27 01:40:11;;;;;;;49.40;25.20;;;6.30;99.90;;;;;;4899122;29;20445;-74
2022/01/27 01:42:40;;;;;;;49.70;27.53;;;6.30;99.90;;;;;;4899333;29;20457;-74
2022/01/27 01:45:10;;;;;;;41.37;24.13;;;6.10;99.90;;;;;;4900193;29;20823;-74
2022/01/27 01:47:39;;;;;;;44.63;25.40;;;6.10;99.90;;;;;;4899457;29;21035;-74
2022/01/27 01:50:06;;;;;;;43.90;26.13;;;6.20;99.90;;;;;;4900187;29;20445;-74
2022/01/27 01:52:35;;;;;;;44.90;25.57;;;6.20;99.90;;;;;;4905343;29;21033;-74
2022/01/27 01:55:01;;;;;;;49.07;27.27;;;6.30;99.90;;;;;;4920082;29;20456;-75
2022/01/27 01:57:27;;;;;;;51.10;26.67;;;6.20;99.90;;;;;;4904903;29;20545;-74
2022/01/27 01:59:53;;;;;;;51.13;26.27;;;6.30;99.90;;;;;;4904973;29;20492;-74
2022/01/27 02:02:21;;;;;;;46.70;26.90;;;6.20;99.90;;;;;;4908802;29;20500;-74
2022/01/27 02:04:47;;;;;;;46.00;26.43;;;6.20;99.90;;;;;;4906970;29;21064;-74
2022/01/27 02:07:32;;;;;;;43.50;25.50;;;6.30;99.90;;;;;;4901534;29;20544;-74
2022/01/27 02:18:00;;;;;;;47.20;26.50;;;6.30;99.90;;;;;;4899883;29;20519;-74
2022/01/27 02:20:29;;;;;;;42.70;24.57;;;6.20;99.90;;;;;;4898509;29;20469;-74
2022/01/27 02:22:55;;;;;;;43.70;23.30;;;6.30;99.90;;;;;;4907613;29;20576;-74
2022/01/27 02:25:20;;;;;;;39.03;22.57;;;6.30;99.90;;;;;;4901948;29;20600;-74
2022/01/27 02:27:52;;;;;;;42.33;23.43;;;6.20;99.90;;;;;;4901343;29;20681;-74
2022/01/27 02:30:18;;;;;;;41.00;23.27;;;6.30;99.90;;;;;;4906682;29;20235;-74
2022/01/27 02:32:45;;;;;;;45.17;23.80;;;6.30;99.90;;;;;;4906743;29;20468;-74
2022/01/27 02:35:13;;;;;;;37.60;21.30;;;6.30;99.90;;;;;;4899666;29;20278;-74
2022/01/27 02:37:39;;;;;;;39.07;22.27;;;6.30;99.90;;;;;;4903867;29;20480;-73
2022/01/27 02:40:05;;;;;;;37.83;22.30;;;6.30;99.90;;;;;;4914913;29;20464;-73
2022/01/27 02:42:35;;;;;;;40.83;23.40;;;6.30;99.90;;;;;;4907742;29;20790;-75
2022/01/27 02:45:04;;;;;;;37.40;22.77;;;6.30;99.90;;;;;;4927910;29;20452;-73
2022/01/27 02:47:30;;;;;;;44.70;23.57;;;6.30;99.90;;;;;;4905060;29;20476;-74
2022/01/27 02:49:58;;;;;;;38.80;21.57;;;6.40;99.90;;;;;;4902670;29;20453;-73
2022/01/27 02:52:24;;;;;;;36.87;22.60;;;6.40;99.90;;;;;;4902178;29;20647;-74
2022/01/27 02:54:50;;;;;;;42.13;24.37;;;6.40;99.90;;;;;;4907917;29;20462;-74
2022/01/27 02:57:18;;;;;;;32.80;20.40;;;6.40;99.90;;;;;;4917431;29;20204;-74
2022/01/27 02:59:43;;;;;;;38.07;21.10;;;6.40;99.90;;;;;;4904767;29;20586;-73
2022/01/27 03:02:09;;;;;;;36.90;21.83;;;6.40;99.90;;;;;;4906663;29;20473;-73
2022/01/27 03:04:35;;;;;;;40.23;22.20;;;6.50;99.90;;;;;;4903776;29;20268;-74
2022/01/27 03:07:05;;;;;;;36.40;21.17;;;6.40;99.90;;;;;;4906694;29;20293;-73
2022/01/27 03:09:34;;;;;;;35.67;20.07;;;6.40;99.90;;;;;;4906922;29;20333;-74
2022/01/27 03:12:10;;;;;;;37.77;22.50;;;6.50;99.90;;;;;;4899677;29;20557;-74
2022/01/27 03:14:36;;;;;;;34.17;21.37;;;6.50;99.90;;;;;;4902417;29;20440;-74
2022/01/27 03:17:04;;;;;;;35.37;19.80;;;6.50;99.90;;;;;;4916270;29;20471;-74
2022/01/27 03:19:34;;;;;;;36.70;23.10;;;6.40;99.90;;;;;;4901748;29;20476;-73
2022/01/27 03:22:02;;;;;;;39.60;22.43;;;6.40;99.90;;;;;;4904218;29;21012;-74
2022/01/27 03:24:28;;;;;;;37.20;21.73;;;6.30;99.90;;;;;;4906417;29;20446;-73
2022/01/27 03:26:57;;;;;;;38.10;22.03;;;6.40;99.90;;;;;;4901293;29;20465;-74
2022/01/27 03:29:25;;;;;;;33.83;20.93;;;6.40;99.90;;;;;;4909399;29;20279;-74
2022/01/27 03:31:54;;;;;;;40.83;22.13;;;6.40;99.90;;;;;;4914270;29;20504;-74
2022/01/27 03:34:21;;;;;;;32.33;20.00;;;6.40;99.90;;;;;;4921852;29;20460;-74
2022/01/27 03:36:49;;;;;;;36.90;22.37;;;6.40;99.90;;;;;;4909451;29;20463;-73
2022/01/27 03:39:18;;;;;;;31.33;20.40;;;6.40;99.90;;;;;;4914079;29;20495;-74
2022/01/27 03:41:49;;;;;;;33.87;22.27;;;6.40;99.90;;;;;;4910490;29;20473;-73
2022/01/27 03:44:16;;;;;;;34.97;20.53;;;6.40;99.90;;;;;;4910854;29;20561;-74
2022/01/27 03:46:41;;;;;;;32.13;20.10;;;6.50;99.90;;;;;;4903939;29;20876;-74
2022/01/27 03:49:07;;;;;;;39.60;22.27;;;6.40;99.90;;;;;;4903024;29;20505;-74
2022/01/27 03:51:33;;;;;;;37.03;21.80;;;6.40;99.90;;;;;;4903722;29;20236;-74
2022/01/27 03:54:01;;;;;;;38.47;21.30;;;6.50;99.90;;;;;;4903640;29;20252;-74
2022/01/27 03:56:27;;;;;;;38.10;20.53;;;6.40;99.90;;;;;;4903762;29;20189;-74
2022/01/27 03:58:55;;;;;;;36.47;22.80;;;6.40;99.90;;;;;;4906405;29;20496;-74
2022/01/27 04:01:20;;;;;;;35.40;22.10;;;6.40;99.90;;;;;;4907279;29;20229;-74
2022/01/27 04:03:46;;;;;;;39.20;22.57;;;6.50;99.90;;;;;;4918048;29;20802;-73
2022/01/27 04:06:20;;;;;;;40.77;23.37;;;6.30;99.90;;;;;;4902856;29;20263;-74
2022/01/27 04:08:46;;;;;;;38.30;22.70;;;6.30;99.90;;;;;;4902594;29;20669;-74
2022/01/27 04:11:11;;;;;;;37.23;22.60;;;6.20;99.90;;;;;;4909749;29;20452;-74
2022/01/27 04:13:37;;;;;;;35.20;21.80;;;6.30;99.90;;;;;;4909336;29;20212;-74
2022/01/27 04:16:04;;;;;;;42.00;23.50;;;6.30;99.90;;;;;;4909093;29;20197;-73
2022/01/27 04:18:30;;;;;;;40.50;21.50;;;6.30;99.90;;;;;;4904173;29;20216;-73
2022/01/27 04:21:00;;;;;;;42.23;22.70;;;6.20;99.90;;;;;;4908530;29;20505;-74
2022/01/27 04:23:29;;;;;;;39.50;21.60;;;6.20;99.90;;;;;;4902541;29;20446;-73
2022/01/27 04:25:54;;;;;;;37.43;21.63;;;6.30;99.90;;;;;;4906276;29;20508;-72
2022/01/27 04:28:27;;;;;;;36.27;21.57;;;6.20;99.90;;;;;;4901953;29;20609;-73
2022/01/27 04:30:55;;;;;;;35.50;22.30;;;6.20;99.90;;;;;;4904952;29;20690;-73
2022/01/27 04:33:26;;;;;;;37.80;21.47;;;6.20;99.90;;;;;;4908293;29;20452;-74
2022/01/27 04:35:55;;;;;;;38.40;22.90;;;6.10;99.90;;;;;;4906630;29;20449;-73
2022/01/27 04:48:39;;;;;;;39.70;23.10;;;6.00;99.90;;;;;;4905209;29;20216;-73
2022/01/27 04:51:12;;;;;;;34.87;20.30;;;6.00;99.90;;;;;;4904094;29;20224;-73
2022/01/27 04:53:44;;;;;;;34.80;20.93;;;6.00;99.90;;;;;;4914674;29;20480;-74
2022/01/27 04:56:13;;;;;;;41.53;22.93;;;6.00;99.90;;;;;;4926273;29;20560;-73
2022/01/27 04:58:45;;;;;;;45.37;22.23;;;6.00;99.90;;;;;;4906833;29;21014;-74
2022/01/27 05:01:11;;;;;;;38.53;22.03;;;6.00;99.90;;;;;;4904565;29;20513;-74
2022/01/27 05:03:43;;;;;;;36.30;21.03;;;5.90;99.90;;;;;;4906438;29;20440;-74
2022/01/27 05:06:11;;;;;;;36.57;20.83;;;5.90;99.90;;;;;;4906196;29;20176;-73
2022/01/27 05:08:36;;;;;;;32.50;19.90;;;5.90;99.90;;;;;;4912178;29;20512;-74
2022/01/27 05:13:38;;;;;;;38.67;20.70;;;6.00;99.90;;;;;;4905076;29;20201;-74
2022/01/27 05:16:07;;;;;;;28.00;19.50;;;6.00;99.90;;;;;;4904370;29;20947;-73
2022/01/27 05:18:33;;;;;;;31.20;18.23;;;6.00;99.90;;;;;;4903433;29;20489;-73
2022/01/27 05:20:58;;;;;;;33.53;20.10;;;6.00;99.90;;;;;;4902086;29;20773;-73
2022/01/27 05:23:24;;;;;;;33.47;19.50;;;6.00;99.90;;;;;;4908886;29;20466;-74
2022/01/27 05:25:49;;;;;;;33.00;19.57;;;5.90;99.90;;;;;;4903513;29;20205;-74
2022/01/27 05:28:15;;;;;;;29.20;18.03;;;6.00;99.90;;;;;;4906035;29;20217;-74
2022/01/27 05:30:43;;;;;;;35.53;20.17;;;6.00;99.90;;;;;;4907017;29;20229;-74
2022/01/27 05:33:09;;;;;;;33.93;19.30;;;5.90;99.90;;;;;;4909014;29;20201;-74
2022/01/27 05:35:35;;;;;;;31.70;19.17;;;5.90;99.90;;;;;;4906879;29;20484;-74
2022/01/27 05:38:03;;;;;;;31.50;18.50;;;6.00;99.90;;;;;;4900695;29;20479;-74
2022/01/27 05:40:30;;;;;;;34.23;19.53;;;6.00;99.90;;;;;;4902311;29;20549;-74
2022/01/27 05:42:55;;;;;;;31.17;18.20;;;6.00;99.90;;;;;;4900400;29;20453;-74
2022/01/27 05:45:24;;;;;;;30.53;18.57;;;6.00;99.90;;;;;;4911440;29;20989;-74
2022/01/27 05:47:51;;;;;;;28.97;18.03;;;6.00;99.90;;;;;;4906209;29;20829;-73
2022/01/27 05:50:22;;;;;;;27.47;16.83;;;6.00;99.90;;;;;;4901212;29;20478;-74
2022/01/27 05:52:48;;;;;;;29.70;17.50;;;6.00;99.90;;;;;;4905381;29;20452;-74
2022/01/27 05:55:14;;;;;;;28.50;16.80;;;5.90;99.90;;;;;;4910729;29;20454;-73
2022/01/27 05:57:39;;;;;;;28.90;18.40;;;5.90;99.90;;;;;;4920525;29;20212;-74
2022/01/27 06:00:10;;;;;;;26.77;16.20;;;5.90;99.90;;;;;;4910220;29;20228;-73
2022/01/27 06:02:36;;;;;;;26.50;17.13;;;5.90;99.90;;;;;;4898878;29;20181;-74
2022/01/27 06:05:02;;;;;;;27.17;17.07;;;5.90;99.90;;;;;;4903235;29;20896;-73
2022/01/27 06:07:31;;;;;;;29.67;16.50;;;5.90;99.90;;;;;;4898876;29;20482;-73
2022/01/27 06:09:57;;;;;;;26.50;15.70;;;5.90;99.90;;;;;;4903255;29;20453;-73
2022/01/27 06:12:24;;;;;;;26.97;16.10;;;5.90;99.90;;;;;;4903120;29;20552;-73
2022/01/27 06:14:49;;;;;;;28.07;17.00;;;5.90;99.90;;;;;;4898379;29;21062;-74
2022/01/27 06:17:17;;;;;;;26.83;17.13;;;5.90;99.90;;;;;;4901414;29;20459;-73
2022/01/27 06:19:44;;;;;;;29.50;15.80;;;5.90;99.90;;;;;;4900591;29;20300;-73
2022/01/27 06:22:13;;;;;;;28.47;15.20;;;5.80;99.90;;;;;;4904901;29;20465;-74
2022/01/27 06:24:40;;;;;;;27.20;15.57;;;5.90;99.90;;;;;;4900019;29;20449;-73
2022/01/27 06:27:06;;;;;;;23.60;16.40;;;5.90;99.90;;;;;;4915868;29;20476;-74
2022/01/27 06:29:32;;;;;;;25.10;15.33;;;5.90;99.90;;;;;;4911641;29;20473;-73
2022/01/27 06:31:58;;;;;;;26.33;16.17;;;5.80;99.90;;;;;;4897256;28;21227;-73
2022/01/27 06:34:23;;;;;;;28.00;15.60;;;5.90;99.90;;;;;;4901805;29;20523;-73
2022/01/27 06:36:49;;;;;;;24.70;15.93;;;5.90;99.90;;;;;;4902411;29;20586;-73
2022/01/27 06:39:15;;;;;;;26.50;16.23;;;6.00;99.90;;;;;;4900285;29;20216;-73
2022/01/27 06:41:42;;;;;;;25.77;14.50;;;5.90;99.90;;;;;;4901172;29;20251;-73
2022/01/27 06:44:08;;;;;;;23.73;15.30;;;6.00;99.90;;;;;;4902676;29;20193;-73
2022/01/27 06:46:35;;;;;;;23.47;15.50;;;6.00;99.90;;;;;;4902018;29;20461;-75
2022/01/27 06:49:04;;;;;;;21.80;14.77;;;6.00;99.90;;;;;;4903094;29;20276;-73
2022/01/27 06:51:30;;;;;;;22.17;14.00;;;6.00;99.90;;;;;;4903709;29;20499;-74
2022/01/27 06:53:56;;;;;;;23.30;16.43;;;6.00;99.90;;;;;;4904401;29;20457;-73
2022/01/27 06:56:21;;;;;;;25.87;16.23;;;6.00;99.90;;;;;;4903475;29;20459;-74
2022/01/27 06:58:47;;;;;;;25.50;15.00;;;6.10;99.90;;;;;;4909161;29;20485;-73
2022/01/27 07:01:13;;;;;;;24.77;14.17;;;6.00;99.90;;;;;;4901401;29;20327;-73
2022/01/27 07:03:38;;;;;;;21.40;14.00;;;6.00;99.90;;;;;;4898681;29;20197;-73
2022/01/27 07:06:06;;;;;;;23.40;14.83;;;6.00;99.90;;;;;;4906998;29;20220;-73
2022/01/27 07:08:32;;;;;;;23.83;14.77;;;6.00;99.90;;;;;;4904116;29;20228;-73
2022/01/27 07:10:57;;;;;;;25.67;15.40;;;6.00;99.90;;;;;;4903790;29;20489;-73
2022/01/27 07:13:23;;;;;;;23.27;14.30;;;6.00;99.90;;;;;;4899106;29;20241;-73
2022/01/27 07:15:48;;;;;;;24.67;14.73;;;6.00;99.90;;;;;;4904733;29;20208;-73
2022/01/27 07:18:14;;;;;;;23.13;14.67;;;6.00;99.90;;;;;;4903219;29;20303;-73
2022/01/27 07:20:40;;;;;;;21.43;13.53;;;6.00;99.90;;;;;;4904173;29;20229;-73
2022/01/27 07:23:11;;;;;;;25.53;14.27;;;6.00;99.90;;;;;;4903533;29;20201;-73
2022/01/27 07:25:37;;;;;;;21.00;13.27;;;6.00;99.90;;;;;;4904066;29;20780;-73
2022/01/27 07:28:03;;;;;;;23.07;14.43;;;6.10;99.90;;;;;;4907286;29;20496;-73
2022/01/27 07:30:29;;;;;;;22.07;14.10;;;6.10;99.90;;;;;;4900327;29;20228;-73
2022/01/27 07:32:55;;;;;;;20.03;12.40;;;6.20;99.90;;;;;;4903600;29;20449;-73
2022/01/27 07:35:20;;;;;;;23.00;13.00;;;6.20;99.90;;;;;;4905582;29;20204;-73
2022/01/27 07:37:46;;;;;;;21.33;14.10;;;6.20;99.90;;;;;;4903142;29;20212;-73
2022/01/27 07:40:13;;;;;;;20.90;13.10;;;6.20;99.90;;;;;;4905033;29;20225;-73
2022/01/27 07:42:38;;;;;;;23.60;13.57;;;6.20;99.90;;;;;;4903585;29;20457;-72
2022/01/27 07:45:05;;;;;;;22.00;12.60;;;6.20;99.90;;;;;;4898637;29;20548;-73
2022/01/27 07:47:30;;;;;;;23.83;13.50;;;6.20;99.90;;;;;;4903940;29;20501;-74
2022/01/27 07:49:56;;;;;;;22.20;13.17;;;6.20;99.90;;;;;;4908626;29;20855;-73
2022/01/27 07:52:21;;;;;;;19.93;12.90;;;6.20;99.90;;;;;;4902395;29;20260;-74
2022/01/27 07:54:47;;;;;;;22.20;13.40;;;6.20;99.90;;;;;;4898862;29;20228;-73
2022/01/27 07:57:13;;;;;;;20.50;13.00;;;6.20;99.90;;;;;;4909709;29;20575;-73
2022/01/27 07:59:39;;;;;;;20.87;13.37;;;6.20;99.90;;;;;;4903889;29;20252;-73
2022/01/27 08:02:05;;;;;;;18.57;11.73;;;6.20;99.90;;;;;;4905588;29;20911;-73
2022/01/27 08:04:33;;;;;;;19.10;12.57;;;6.20;99.90;;;;;;4905969;29;20505;-73
2022/01/27 08:07:00;;;;;;;21.03;13.30;;;6.20;99.90;;;;;;4910717;29;20193;-74
2022/01/27 08:09:26;;;;;;;17.57;11.87;;;6.30;99.90;;;;;;4908639;29;20483;-73
2022/01/27 08:11:52;;;;;;;16.80;12.40;;;6.20;99.90;;;;;;4903061;29;20861;-73
2022/01/27 08:14:20;;;;;;;19.23;12.03;;;6.20;99.90;;;;;;4904759;29;20464;-73
2022/01/27 08:16:46;;;;;;;18.93;12.03;;;6.20;99.90;;;;;;4900328;29;20827;-73
2022/01/27 08:19:11;;;;;;;20.13;12.63;;;6.30;99.90;;;;;;4901473;29;20488;-73
2022/01/27 08:21:37;;;;;;;20.83;12.57;;;6.20;99.90;;;;;;4903365;29;20217;-73
2022/01/27 08:24:03;;;;;;;19.87;11.60;;;6.20;99.90;;;;;;4908659;29;20194;-73
2022/01/27 08:29:11;;;;;;;15.93;11.07;;;6.20;99.90;;;;;;4899891;29;20209;-73
2022/01/27 08:31:59;;;;;;;20.57;11.00;;;6.30;99.90;;;;;;4899892;29;20476;-73
2022/01/27 08:34:34;;;;;;;16.07;9.40;;;6.30;99.90;;;;;;4896897;29;20989;-73
2022/01/27 08:37:02;;;;;;;15.37;10.10;;;6.30;99.90;;;;;;4900047;29;20499;-73
2022/01/27 08:39:27;;;;;;;17.60;10.10;;;6.20;99.90;;;;;;4917923;29;20512;-73
2022/01/27 08:41:53;;;;;;;17.80;11.50;;;6.30;99.90;;;;;;4895048;29;20571;-73
2022/01/27 08:44:21;;;;;;;16.77;10.40;;;6.30;99.90;;;;;;4902178;29;20231;-73
2022/01/27 08:46:47;;;;;;;19.23;11.67;;;6.30;99.90;;;;;;4902754;29;20259;-73
2022/01/27 08:49:13;;;;;;;13.20;9.60;;;6.40;99.90;;;;;;4902877;29;20616;-73
2022/01/27 08:51:38;;;;;;;15.57;10.20;;;6.40;99.90;;;;;;4899756;29;20324;-73
2022/01/27 08:54:05;;;;;;;17.73;9.80;;;6.40;99.90;;;;;;4902949;29;20688;-73
2022/01/27 08:56:31;;;;;;;18.40;11.10;;;6.30;99.90;;;;;;4901556;29;20692;-73
2022/01/27 08:58:57;;;;;;;15.50;9.70;;;6.40;99.90;;;;;;4901867;29;20972;-74
2022/01/27 09:01:24;;;;;;;14.63;9.90;;;6.40;99.90;;;;;;4902224;29;20476;-74
2022/01/27 09:03:51;;;;;;;13.63;9.37;;;6.40;99.90;;;;;;4901037;29;20463;-73
2022/01/27 09:06:18;;;;;;;14.30;10.03;;;6.60;99.90;;;;;;4900647;29;20485;-73
2022/01/27 09:08:45;;;;;;;17.73;10.30;;;6.50;99.90;;;;;;4902191;29;20572;-73
2022/01/27 09:11:11;;;;;;;13.77;9.87;;;6.50;99.90;;;;;;4899583;29;20490;-73
2022/01/27 09:13:38;;;;;;;14.90;10.07;;;6.50;99.90;;;;;;4899964;29;20463;-74
2022/01/27 09:16:06;;;;;;;16.10;10.20;;;6.50;99.90;;;;;;4904855;29;20456;-73
2022/01/27 09:18:52;;;;;;;15.10;10.07;;;6.50;99.90;;;;;;4900125;29;20476;-73
2022/01/27 09:21:23;;;;;;;13.17;8.90;;;6.50;99.90;;;;;;4833462;29;20570;-73
2022/01/27 09:23:50;;;;;;;16.93;10.27;;;6.60;99.90;;;;;;4830235;29;20488;-74
2022/01/27 09:29:00;;;;;;;13.40;8.37;;;6.50;99.90;;;;;;4831247;29;21063;-73
2022/01/27 09:31:25;;;;;;;14.20;8.70;;;6.60;99.90;;;;;;4831845;29;20476;-74
2022/01/27 09:33:51;;;;;;;14.43;8.50;;;6.60;99.90;;;;;;4817512;29;20219;-73
2022/01/27 09:36:21;;;;;;;16.07;9.70;;;6.60;99.90;;;;;;4832851;29;20282;-73
2022/01/27 09:38:47;;;;;;;10.13;7.73;;;6.60;99.90;;;;;;4833326;29;20228;-73
2022/01/27 09:41:19;;;;;;;10.67;7.60;;;6.70;99.90;;;;;;4828963;29;21017;-74
2022/01/27 09:43:45;;;;;;;12.20;7.63;;;6.70;99.90;;;;;;4829871;29;20206;-73
2022/01/27 09:46:13;;;;;;;10.13;7.03;;;6.70;99.90;;;;;;4829938;29;20816;-73
2022/01/27 09:48:44;;;;;;;9.43;7.00;;;6.70;99.90;;;;;;4832923;29;20483;-73
2022/01/27 09:53:46;;;;;;;8.90;6.53;;;6.80;99.90;;;;;;4829292;29;20519;-73
2022/01/27 09:56:11;;;;;;;8.07;6.77;;;6.80;99.90;;;;;;4831885;29;20472;-74
2022/01/27 09:58:37;;;;;;;9.70;6.40;;;6.90;99.90;;;;;;4881190;29;20565;-73
2022/01/27 10:01:04;;;;;;;8.53;6.17;;;6.90;99.90;;;;;;4897242;29;20299;-74
2022/01/27 10:03:32;;;;;;;9.77;5.90;;;7.00;99.90;;;;;;4917763;29;20283;-74
2022/01/27 10:06:13;;;;;;;26.07;8.00;;;7.00;99.90;;;;;;4900612;29;20449;-74
2022/01/27 10:08:44;;;;;;;9.03;6.50;;;7.00;99.90;;;;;;4902632;29;21072;-73
2022/01/27 10:11:18;;;;;;;8.67;6.87;;;6.90;99.90;;;;;;4903322;29;20473;-74
2022/01/27 10:13:46;;;;;;;9.97;6.87;;;7.00;99.90;;;;;;4900592;29;20828;-74
2022/01/27 10:16:35;;;;;;;8.10;6.90;;;7.10;99.90;;;;;;4898947;29;20991;-74
2022/01/27 10:19:09;;;;;;;14.67;7.33;;;7.10;99.90;;;;;;4902796;29;20484;-74
2022/01/27 10:21:36;;;;;;;9.70;6.93;;;7.10;99.90;;;;;;4908240;29;20469;-74
2022/01/27 10:24:25;;;;;;;11.83;7.10;;;7.20;99.90;;;;;;4915007;29;20457;-73
2022/01/27 10:32:36;;;;;;;15.97;7.67;;;7.30;99.90;;;;;;4898254;29;20577;-74
2022/01/27 10:35:04;;;;;;;8.17;7.00;;;7.30;99.90;;;;;;4904440;29;20485;-74
2022/01/27 10:37:58;;;;;;;13.90;8.13;;;7.40;99.90;;;;;;4899586;29;20480;-73
2022/01/27 10:40:29;;;;;;;13.00;6.83;;;7.40;99.90;;;;;;4899304;29;20477;-74
2022/01/27 10:43:08;;;;;;;9.57;6.33;;;7.50;99.90;;;;;;4897882;29;20449;-74
2022/01/27 10:45:35;;;;;;;12.40;6.53;;;7.50;99.90;;;;;;4915344;29;20464;-74
2022/01/27 10:48:14;;;;;;;11.70;7.40;;;7.50;99.90;;;;;;4896463;29;20851;-74
2022/01/27 10:50:50;;;;;;;10.27;7.17;;;7.50;99.90;;;;;;4901996;29;20885;-73
2022/01/27 10:53:19;;;;;;;12.43;7.40;;;7.60;99.90;;;;;;4903568;29;20455;-74
2022/01/27 10:55:45;;;;;;;10.50;7.07;;;7.60;99.90;;;;;;4899803;29;21325;-73
2022/01/27 10:58:29;;;;;;;13.10;7.80;;;7.60;99.90;;;;;;4898407;29;20460;-74
2022/01/27 11:00:59;;;;;;;15.73;8.00;;;7.60;99.90;;;;;;4897930;29;20547;-73
2022/01/27 11:03:27;;;;;;;13.57;7.47;;;7.70;99.90;;;;;;4901648;29;20485;-73
2022/01/27 11:05:54;;;;;;;11.70;6.70;;;7.70;99.90;;;;;;4901244;29;20468;-74
2022/01/27 11:08:21;;;;;;;19.77;8.10;;;7.80;99.90;;;;;;4900205;29;20489;-74
2022/01/27 11:10:49;;;;;;;16.93;7.70;;;7.80;99.90;;;;;;4902914;29;20490;-73
2022/01/27 11:13:20;;;;;;;12.27;7.63;;;7.90;99.90;;;;;;4900393;29;20452;-74
2022/01/27 11:15:46;;;;;;;12.90;7.37;;;7.90;99.90;;;;;;4899204;29;20994;-73
2022/01/27 11:18:16;;;;;;;18.03;7.73;;;8.10;99.90;;;;;;4894105;29;20628;-75
2022/01/27 11:20:57;;;;;;;16.27;7.27;;;8.10;99.90;;;;;;4899294;29;20232;-74
2022/01/27 11:26:09;;;;;;;13.97;6.03;;;8.20;99.90;;;;;;4903051;29;20527;-74
2022/01/27 11:28:36;;;;;;;16.40;8.17;;;8.30;99.90;;;;;;4899715;29;20477;-74
2022/01/27 11:31:30;;;;;;;17.30;6.60;;;8.30;99.90;;;;;;4900699;29;21309;-73
2022/01/27 11:34:02;;;;;;;13.33;6.30;;;8.40;99.90;;;;;;4900672;29;20768;-73
2022/01/27 11:36:29;;;;;;;12.63;5.27;;;8.50;99.90;;;;;;4901076;29;20459;-73
2022/01/27 11:38:55;;;;;;;15.93;5.20;;;8.50;99.90;;;;;;4906629;29;20504;-74
2022/01/27 11:41:42;;;;;;;17.80;5.80;;;8.60;99.90;;;;;;4901698;29;20495;-73
2022/01/27 11:44:19;;;;;;;17.33;6.03;;;8.50;99.90;;;;;;4903970;29;20460;-74
2022/01/27 11:47:17;;;;;;;20.77;5.20;;;8.60;99.90;;;;;;4914938;29;20487;-74
2022/01/27 11:50:22;;;;;;;12.93;4.50;;;8.70;99.90;;;;;;4895796;29;20991;-75
2022/01/27 11:52:53;;;;;;;18.73;5.30;;;8.70;99.90;;;;;;4900382;29;20588;-73
2022/01/27 11:55:24;;;;;;;20.30;5.83;;;8.80;99.90;;;;;;4895898;29;20458;-74
2022/01/27 11:57:51;;;;;;;18.20;4.97;;;9.00;99.90;;;;;;4894695;29;20472;-75
2022/01/27 12:00:20;;;;;;;10.50;3.90;;;9.30;99.90;;;;;;4894426;29;20464;-74
2022/01/27 12:03:04;;;;;;;10.40;4.03;;;9.50;99.90;;;;;;4896743;29;20441;-75
2022/01/27 12:05:40;;;;;;;15.43;4.00;;;9.70;99.90;;;;;;4915388;29;21843;-74
2022/01/27 12:08:15;;;;;;;12.87;4.00;;;9.70;99.90;;;;;;4901502;29;20480;-74
2022/01/27 12:10:47;;;;;;;10.70;3.57;;;9.80;99.90;;;;;;4904948;29;20462;-73
2022/01/27 12:13:31;;;;;;;14.43;4.10;;;9.90;99.90;;;;;;4903350;29;20532;-74
2022/01/27 12:16:58;;;;;;;11.13;3.70;;;10.10;99.90;;;;;;4917210;29;20584;-74
2022/01/27 12:19:09;;;;;;;12.17;3.67;;;10.20;99.90;;;;;;4898330;29;20512;-74
2022/01/27 12:21:54;;;;;;;15.70;4.97;;;10.20;99.90;;;;;;4902212;29;20468;-74
2022/01/27 12:24:28;;;;;;;13.80;3.53;;;10.20;99.90;;;;;;4903656;29;20506;-74
2022/01/27 12:27:16;;;;;;;12.37;3.33;;;10.50;99.90;;;;;;4898363;29;20540;-74
2022/01/27 12:29:47;;;;;;;10.57;3.50;;;10.40;99.90;;;;;;4894764;29;20473;-75
2022/01/27 12:32:22;;;;;;;7.93;3.20;;;10.50;99.90;;;;;;4904027;29;20488;-75
2022/01/27 12:34:53;;;;;;;12.40;3.30;;;10.50;99.90;;;;;;4902227;29;20457;-76
2022/01/27 12:37:22;;;;;;;13.10;3.33;;;10.50;99.90;;;;;;4903284;29;20445;-76
2022/01/27 12:39:57;;;;;;;15.30;3.10;;;10.40;99.90;;;;;;4901660;29;20480;-74
2022/01/27 12:42:32;;;;;;;9.53;3.33;;;10.30;99.90;;;;;;4899289;29;20480;-74
2022/01/27 12:44:59;;;;;;;12.47;4.13;;;10.20;99.90;;;;;;4901510;29;20559;-75
2022/01/27 12:47:26;;;;;;;14.17;3.73;;;10.20;99.90;;;;;;4900410;29;20519;-75
2022/01/27 12:50:08;;;;;;;14.50;3.73;;;10.20;99.90;;;;;;4902459;29;20496;-75
2022/01/27 12:52:40;;;;;;;9.60;3.60;;;10.20;99.90;;;;;;4898465;29;20473;-75
2022/01/27 12:55:08;;;;;;;9.90;3.60;;;10.30;99.90;;;;;;4900589;29;20453;-74
2022/01/27 12:57:37;;;;;;;12.60;3.70;;;10.10;99.90;;;;;;4902928;29;20473;-74
2022/01/27 13:00:06;;;;;;;15.80;4.67;;;10.50;99.90;;;;;;4915515;29;20532;-75
2022/01/27 13:02:32;;;;;;;8.60;2.90;;;11.20;99.90;;;;;;4899967;29;20450;-74
2022/01/27 13:05:00;;;;;;;12.43;3.40;;;11.80;99.90;;;;;;4899598;29;20453;-74
2022/01/27 13:07:27;;;;;;;10.50;3.40;;;11.90;99.90;;;;;;4898131;29;20461;-75
2022/01/27 13:10:08;;;;;;;8.00;2.70;;;11.80;99.90;;;;;;4897218;29;20464;-75
2022/01/27 13:12:41;;;;;;;10.70;3.17;;;11.90;99.90;;;;;;4897006;29;20485;-73
2022/01/27 13:15:14;;;;;;;10.40;3.00;;;11.80;99.90;;;;;;4897175;29;20446;-76
2022/01/27 13:17:57;;;;;;;10.30;3.67;;;11.60;99.90;;;;;;4898212;29;21108;-74
2022/01/27 13:20:39;;;;;;;7.93;2.93;;;11.40;99.90;;;;;;4898676;29;20485;-74
2022/01/27 13:23:55;;;;;;;9.57;3.57;;;11.20;99.90;;;;;;4897555;29;20464;-74
2022/01/27 13:26:09;;;;;;;8.23;3.50;;;11.00;99.90;;;;;;4893794;29;21237;-75
2022/01/27 13:28:37;;;;;;;14.07;3.37;;;10.70;99.90;;;;;;4914974;29;20577;-74
2022/01/27 13:31:08;;;;;;;14.50;3.37;;;10.60;99.90;;;;;;4900044;29;20637;-74
2022/01/27 13:33:38;;;;;;;15.60;3.37;;;10.50;99.90;;;;;;4901210;29;20485;-74
2022/01/27 13:36:07;;;;;;;8.63;2.60;;;10.50;99.90;;;;;;4901182;29;20449;-74
2022/01/27 13:38:50;;;;;;;9.27;3.13;;;10.50;99.90;;;;;;4900201;29;20478;-74
2022/01/27 13:41:22;;;;;;;11.37;3.07;;;10.50;99.90;;;;;;4894262;29;20488;-75
2022/01/27 13:43:59;;;;;;;9.40;3.10;;;10.40;99.90;;;;;;4904867;29;20458;-75
2022/01/27 13:46:47;;;;;;;8.07;2.70;;;10.30;99.90;;;;;;4898352;29;20437;-75
2022/01/27 13:49:28;;;;;;;11.63;3.10;;;10.30;99.90;;;;;;4889230;29;20561;-75
2022/01/27 13:52:07;;;;;;;10.40;3.20;;;10.20;99.90;;;;;;4900472;29;20483;-74
2022/01/27 13:54:38;;;;;;;13.67;2.60;;;10.20;99.90;;;;;;4902581;29;21049;-74
2022/01/27 13:57:15;;;;;;;13.47;3.33;;;10.30;99.90;;;;;;4897629;29;20894;-75
2022/01/27 14:00:01;;;;;;;10.27;3.97;;;10.30;99.90;;;;;;4897280;29;20481;-73